Rock Falls, Illinois
Current Conditions -  °F | °C
As of 9:35 AM on Thursday 18 Dec 2014 (Local Time) from KSQI Reporting Station
Clear Clear  
Wind Chill: 21°   Ceiling: Unl
Heat Index: 21°   Visibility: 10mi
Dew Point: 16°   Wind: 3mph
Humidity: 80%   Direction: 300°WNW
Pressure: 30.32"   Gusts: NA
Location:  41.78°N, 89.69°W
Report Text: KSQI 181535Z 30003KT 10SM CLR M06/M09 A3032 RMK AO1
Loading
Personal Weather Stations






























Interactive Weather Map New forecast layout! Learn more

10-Day Weather Forecast

Advertisements
Track Severe Weather on mobile